createdAt,value
2022-09-01T00:00:29.980Z,100959.13
2022-09-01T00:02:58.093Z,100963.44
2022-09-01T00:05:26.106Z,100955.09
2022-09-01T00:07:53.924Z,100957.78
2022-09-01T00:10:21.871Z,100954.56
2022-09-01T00:12:49.663Z,100956.19
2022-09-01T00:15:17.654Z,100951.31
2022-09-01T00:17:46.987Z,100957.50
2022-09-01T00:20:20.062Z,100958.03
2022-09-01T00:22:48.630Z,100956.44
2022-09-01T00:25:18.850Z,100958.84
2022-09-01T00:27:47.787Z,100957.47
2022-09-01T00:30:15.941Z,100960.47
2022-09-01T00:32:46.755Z,100956.44
2022-09-01T00:35:17.353Z,100959.38
2022-09-01T00:37:45.546Z,100956.97
2022-09-01T00:40:16.426Z,100951.84
2022-09-01T00:42:45.330Z,100958.03
2022-09-01T00:45:13.390Z,100962.06
2022-09-01T00:47:41.393Z,100963.44
2022-09-01T00:50:12.851Z,100953.47
2022-09-01T00:52:46.387Z,100958.84
2022-09-01T00:55:18.770Z,100948.06
2022-09-01T00:57:47.601Z,100960.44
2022-09-01T01:00:19.020Z,100956.16
2022-09-01T01:02:48.473Z,100956.13
2022-09-01T01:05:17.282Z,100946.97
2022-09-01T01:07:48.013Z,100959.34
2022-09-01T01:10:17.726Z,100949.09
2022-09-01T01:12:47.403Z,100945.06
2022-09-01T01:15:17.200Z,100942.88
2022-09-01T01:17:45.346Z,100959.84
2022-09-01T01:20:35.571Z,100949.34
2022-09-01T01:23:11.229Z,100953.41
2022-09-01T01:25:43.315Z,100950.38
2022-09-01T01:28:15.758Z,100949.03
2022-09-01T01:30:52.711Z,100945.00
2022-09-01T01:33:23.425Z,100948.47
2022-09-01T01:35:53.823Z,100946.31
2022-09-01T01:38:22.925Z,100940.09
2022-09-01T01:40:54.080Z,100942.25
2022-09-01T01:43:23.066Z,100947.34
2022-09-01T01:45:52.306Z,100949.22
2022-09-01T01:48:23.125Z,100954.31
2022-09-01T01:50:52.386Z,100946.22
2022-09-01T01:53:21.014Z,100952.38
2022-09-01T01:55:50.423Z,100950.50
2022-09-01T01:58:20.509Z,100951.03
2022-09-01T02:00:51.366Z,100949.13
2022-09-01T02:03:22.050Z,100946.72
2022-09-01T02:05:53.572Z,100951.53
2022-09-01T02:08:26.078Z,100950.44
2022-09-01T02:10:58.077Z,100947.22
2022-09-01T02:13:30.354Z,100946.66
2022-09-01T02:16:02.098Z,100947.47
2022-09-01T02:18:34.300Z,100953.34
2022-09-01T02:21:03.274Z,100953.31
2022-09-01T02:23:32.924Z,100947.59
2022-09-01T02:26:16.182Z,100953.53
2022-09-01T02:28:54.759Z,100948.16
2022-09-01T02:31:25.241Z,100943.00
2022-09-01T02:33:54.441Z,100937.91
2022-09-01T02:36:25.445Z,100929.81
2022-09-01T02:38:56.463Z,100927.69
2022-09-01T02:41:29.509Z,100928.72
2022-09-01T02:44:02.290Z,100938.69
2022-09-01T02:46:31.211Z,100940.56
2022-09-01T02:49:00.657Z,100936.25
2022-09-01T02:51:28.823Z,100946.75
2022-09-01T02:53:56.930Z,100935.19
2022-09-01T02:56:27.409Z,100939.25
2022-09-01T02:58:56.718Z,100932.78
2022-09-01T03:01:29.591Z,100944.34
2022-09-01T03:04:01.272Z,100938.97
2022-09-01T03:06:34.193Z,100930.91
2022-09-01T03:09:03.942Z,100936.28
2022-09-01T03:11:37.141Z,100924.44
2022-09-01T03:14:05.499Z,100934.66
2022-09-01T03:16:35.562Z,100930.38
2022-09-01T03:19:04.286Z,100925.22
2022-09-01T03:21:32.876Z,100923.63
2022-09-01T03:24:02.140Z,100928.19
2022-09-01T03:26:30.648Z,100928.47
2022-09-01T03:28:59.439Z,100926.00
2022-09-01T03:31:31.163Z,100928.16
2022-09-01T03:34:03.519Z,100933.53
2022-09-01T03:36:33.325Z,100929.47
2022-09-01T03:39:01.983Z,100930.81
2022-09-01T03:41:32.153Z,100923.25
2022-09-01T03:44:00.673Z,100932.41
2022-09-01T03:46:36.279Z,100929.16
2022-09-01T03:49:07.319Z,100931.06
2022-09-01T03:51:39.454Z,100924.31
2022-09-01T03:54:07.622Z,100927.25
2022-09-01T03:56:35.670Z,100919.44
2022-09-01T03:59:03.774Z,100924.78
2022-09-01T04:01:33.695Z,100920.47
2022-09-01T04:04:01.848Z,100918.06
2022-09-01T04:06:31.045Z,100911.88
2022-09-01T04:09:03.289Z,100916.13
2022-09-01T04:11:32.413Z,100914.53
2022-09-01T04:14:03.023Z,100903.72
2022-09-01T04:16:51.947Z,100918.28
2022-09-01T04:19:26.504Z,100921.22
2022-09-01T04:21:59.723Z,100934.91
2022-09-01T04:24:29.588Z,100925.75
2022-09-01T04:27:00.288Z,100927.06
2022-09-01T04:29:28.292Z,100926.78
2022-09-01T04:31:56.999Z,100929.97
2022-09-01T04:34:26.291Z,100926.19
2022-09-01T04:36:57.014Z,100928.56
2022-09-01T04:39:25.279Z,100937.41
2022-09-01T04:41:53.369Z,100931.69
2022-09-01T04:44:22.221Z,100927.06
2022-09-01T04:46:51.019Z,100915.16
2022-09-01T04:49:22.454Z,100929.16
2022-09-01T04:51:54.012Z,100925.09
2022-09-01T04:54:23.982Z,100922.69
2022-09-01T04:56:54.141Z,100924.50
2022-09-01T04:59:24.220Z,100926.66
2022-09-01T05:01:54.976Z,100926.06
2022-09-01T05:04:27.348Z,100928.44
2022-09-01T05:07:00.781Z,100925.22
2022-09-01T05:09:31.442Z,100919.53
2022-09-01T05:12:12.857Z,100922.97
2022-09-01T05:14:45.250Z,100920.00
2022-09-01T05:17:14.777Z,100920.75
2022-09-01T05:19:47.691Z,100912.88
2022-09-01T05:22:16.603Z,100913.97
2022-09-01T05:24:45.790Z,100930.31
2022-09-01T05:27:14.540Z,100920.34
2022-09-01T05:29:42.655Z,100920.59
2022-09-01T05:32:10.860Z,100915.72
2022-09-01T05:34:39.796Z,100922.16
2022-09-01T05:37:12.227Z,100922.16
2022-09-01T05:39:40.296Z,100918.09
2022-09-01T05:42:09.587Z,100921.63
2022-09-01T05:44:39.438Z,100922.66
2022-09-01T05:47:10.142Z,100928.81
2022-09-01T05:49:48.090Z,100929.09
2022-09-01T05:52:16.290Z,100930.97
2022-09-01T05:54:44.141Z,100926.41
2022-09-01T05:57:33.431Z,100923.47
2022-09-01T06:00:02.309Z,100927.78
2022-09-01T06:02:31.000Z,100930.75
2022-09-01T06:05:00.322Z,100927.31
2022-09-01T06:07:28.834Z,100929.25
2022-09-01T06:09:57.045Z,100930.94
2022-09-01T06:12:28.336Z,100930.97
2022-09-01T06:14:57.135Z,100935.38
2022-09-01T06:17:28.516Z,100938.91
2022-09-01T06:19:57.767Z,100939.72
2022-09-01T06:22:27.947Z,100937.88
2022-09-01T06:25:01.797Z,100941.69
2022-09-01T06:27:31.727Z,100938.78
2022-09-01T06:29:59.748Z,100940.72
2022-09-01T06:32:27.961Z,100936.19
2022-09-01T06:34:58.133Z,100941.63
2022-09-01T06:37:27.127Z,100946.00
2022-09-01T06:39:55.389Z,100949.53
2022-09-01T06:42:23.578Z,100946.09
2022-09-01T06:44:53.143Z,100942.41
2022-09-01T06:47:21.207Z,100943.25
2022-09-01T06:49:53.557Z,100940.81
2022-09-01T06:52:23.797Z,100933.88
2022-09-01T06:54:54.979Z,100943.03
2022-09-01T07:03:08.523Z,100940.00
2022-09-01T07:08:25.436Z,100940.09
2022-09-01T07:16:51.754Z,100940.84
2022-09-01T07:19:21.202Z,100940.34
2022-09-01T07:24:37.415Z,100950.66
2022-09-01T07:27:09.341Z,100952.31
2022-09-01T07:29:37.380Z,100953.16
2022-09-01T07:34:56.174Z,100953.19
2022-09-01T07:43:09.650Z,100957.75
2022-09-01T07:45:47.283Z,100958.31
2022-09-01T07:53:57.406Z,100970.16
2022-09-01T07:56:26.272Z,100971.22
2022-09-01T07:58:54.360Z,100965.28
2022-09-01T08:01:25.038Z,100959.28
2022-09-01T08:03:56.077Z,100956.84
2022-09-01T08:06:27.292Z,100960.63
2022-09-01T08:08:58.531Z,100962.47
2022-09-01T08:14:18.161Z,100960.78
2022-09-01T08:16:54.103Z,100961.81
2022-09-01T08:19:24.859Z,100969.88
2022-09-01T08:21:52.846Z,100958.44
2022-09-01T08:24:21.986Z,100967.59
2022-09-01T08:26:49.769Z,100968.94
2022-09-01T08:29:17.895Z,100958.34
2022-09-01T08:31:47.776Z,100963.13
2022-09-01T08:34:17.018Z,100963.59
2022-09-01T08:36:46.261Z,100961.91
2022-09-01T08:39:14.080Z,100959.16
2022-09-01T08:41:46.830Z,100961.78
2022-09-01T08:44:28.533Z,100961.97
2022-09-01T08:47:03.170Z,100959.50
2022-09-01T08:49:42.492Z,100963.47
2022-09-01T08:52:24.150Z,100963.38
2022-09-01T08:54:57.573Z,100961.34
2022-09-01T08:57:32.200Z,100956.97
2022-09-01T09:00:00.261Z,100953.66
2022-09-01T09:02:47.884Z,100959.50
2022-09-01T09:05:29.237Z,100958.09
2022-09-01T09:08:14.398Z,100954.22
2022-09-01T09:10:52.230Z,100949.56
2022-09-01T09:13:25.682Z,100952.75
2022-09-01T09:16:13.694Z,100949.66
2022-09-01T09:19:00.624Z,100947.63
2022-09-01T09:21:33.692Z,100943.47
2022-09-01T09:24:11.157Z,100938.72
2022-09-01T09:26:42.528Z,100945.66
2022-09-01T09:29:10.706Z,100946.59
2022-09-01T09:31:45.951Z,100945.97
2022-09-01T09:34:29.720Z,100944.28
2022-09-01T09:36:57.546Z,100939.88
2022-09-01T09:39:30.464Z,100940.44
2022-09-01T09:42:11.952Z,100937.66
2022-09-01T09:44:45.312Z,100929.44
2022-09-01T09:47:43.727Z,100927.44
2022-09-01T09:50:20.847Z,100924.97
2022-09-01T09:52:49.613Z,100915.44
2022-09-01T09:55:26.564Z,100919.75
2022-09-01T09:57:57.509Z,100908.38
2022-09-01T10:00:28.425Z,100908.31
2022-09-01T10:03:01.549Z,100909.53
2022-09-01T10:05:39.754Z,100905.91
2022-09-01T10:08:10.365Z,100908.03
2022-09-01T10:10:43.102Z,100913.06
2022-09-01T10:13:15.671Z,100898.88
2022-09-01T10:15:51.237Z,100897.19
2022-09-01T10:18:22.248Z,100900.47
2022-09-01T10:21:01.765Z,100896.53
2022-09-01T10:23:31.686Z,100897.13
2022-09-01T10:26:06.505Z,100900.25
2022-09-01T10:28:49.937Z,100898.03
2022-09-01T10:31:20.145Z,100892.59
2022-09-01T10:33:48.547Z,100891.22
2022-09-01T10:36:18.254Z,100886.38
2022-09-01T10:38:53.530Z,100888.50
2022-09-01T10:41:48.267Z,100891.41
2022-09-01T10:44:21.303Z,100883.78
2022-09-01T10:46:50.834Z,100879.94
2022-09-01T10:50:07.626Z,100879.16
2022-09-01T10:52:57.774Z,100875.53
2022-09-01T10:55:33.713Z,100878.63
2022-09-01T11:01:11.696Z,100878.94
2022-09-01T11:03:56.552Z,100872.47
2022-09-01T11:07:17.234Z,100872.09
2022-09-01T11:10:31.969Z,100873.47
2022-09-01T11:13:23.176Z,100863.00
2022-09-01T11:15:52.906Z,100868.31
2022-09-01T11:18:27.592Z,100877.16
2022-09-01T11:20:57.960Z,100868.69
2022-09-01T11:23:30.508Z,100871.88
2022-09-01T11:28:48.457Z,100857.88
2022-09-01T11:31:23.465Z,100865.00
2022-09-01T11:34:24.672Z,100865.66
2022-09-01T11:37:00.319Z,100870.69
2022-09-01T11:39:40.706Z,100865.63
2022-09-01T11:42:14.544Z,100866.00
2022-09-01T11:44:49.520Z,100867.78
2022-09-01T11:47:22.967Z,100860.78
2022-09-01T11:49:55.098Z,100858.69
2022-09-01T11:52:26.181Z,100859.94
2022-09-01T11:54:55.555Z,100860.91
2022-09-01T11:57:27.635Z,100856.91
2022-09-01T11:59:56.386Z,100860.63
2022-09-01T12:02:27.902Z,100856.97
2022-09-01T12:04:57.528Z,100851.69
2022-09-01T12:07:31.355Z,100851.56
2022-09-01T12:09:59.609Z,100855.56
2022-09-01T12:12:32.996Z,100841.03
2022-09-01T12:15:06.112Z,100842.63
2022-09-01T12:17:37.117Z,100832.22
2022-09-01T12:20:28.129Z,100837.38
2022-09-01T12:22:58.153Z,100836.88
2022-09-01T12:25:28.547Z,100830.59
2022-09-01T12:27:56.920Z,100829.13
2022-09-01T12:30:25.926Z,100832.09
2022-09-01T12:33:22.782Z,100821.50
2022-09-01T12:35:44.053Z,100819.31
2022-09-01T12:38:23.864Z,100814.50
2022-09-01T12:40:54.323Z,100828.03
2022-09-01T12:43:35.481Z,100827.09
2022-09-01T12:46:04.690Z,100832.25
2022-09-01T12:48:35.889Z,100826.16
2022-09-01T12:51:09.535Z,100824.47
2022-09-01T12:53:37.951Z,100828.19
2022-09-01T12:56:22.825Z,100821.50
2022-09-01T12:58:54.951Z,100825.53
2022-09-01T13:01:29.870Z,100828.41
2022-09-01T13:04:28.442Z,100814.50
2022-09-01T13:07:01.615Z,100824.28
2022-09-01T13:09:30.070Z,100818.03
2022-09-01T13:12:12.199Z,100817.22
2022-09-01T13:14:40.365Z,100822.81
2022-09-01T13:17:14.083Z,100827.72
2022-09-01T13:19:57.981Z,100811.72
2022-09-01T13:22:26.021Z,100815.06
2022-09-01T13:24:54.072Z,100815.41
2022-09-01T13:27:23.507Z,100811.84
2022-09-01T13:29:52.537Z,100804.19
2022-09-01T13:32:22.538Z,100812.97
2022-09-01T13:34:52.496Z,100805.00
2022-09-01T13:37:23.229Z,100797.63
2022-09-01T13:39:51.619Z,100806.47
2022-09-01T13:42:20.042Z,100799.63
2022-09-01T13:44:52.501Z,100794.66
2022-09-01T13:47:31.804Z,100781.25
2022-09-01T13:50:09.746Z,100781.44
2022-09-01T13:52:41.060Z,100784.03
2022-09-01T13:55:12.205Z,100787.75
2022-09-01T13:57:40.311Z,100788.25
2022-09-01T14:00:11.891Z,100773.53
2022-09-01T14:02:40.546Z,100778.66
2022-09-01T14:05:09.511Z,100774.00
2022-09-01T14:07:37.685Z,100769.69
2022-09-01T14:10:08.992Z,100765.22
2022-09-01T14:12:37.568Z,100766.81
2022-09-01T14:15:12.320Z,100773.88
2022-09-01T14:17:44.014Z,100768.28
2022-09-01T14:20:15.347Z,100766.50
2022-09-01T14:22:43.407Z,100769.34
2022-09-01T14:25:12.913Z,100763.09
2022-09-01T14:27:42.455Z,100756.72
2022-09-01T14:30:19.847Z,100763.16
2022-09-01T14:32:47.688Z,100763.63
2022-09-01T14:35:17.714Z,100756.50
2022-09-01T14:37:45.724Z,100754.25
2022-09-01T14:40:17.285Z,100747.84
2022-09-01T14:42:47.667Z,100760.19
2022-09-01T14:45:16.673Z,100745.91
2022-09-01T14:47:45.028Z,100744.44
2022-09-01T14:50:15.953Z,100744.38
2022-09-01T14:52:47.203Z,100741.22
2022-09-01T14:55:17.084Z,100742.22
2022-09-01T14:57:45.088Z,100743.47
2022-09-01T15:00:14.257Z,100739.38
2022-09-01T15:02:44.224Z,100739.56
2022-09-01T15:05:14.324Z,100733.31
2022-09-01T15:07:43.076Z,100724.44
2022-09-01T15:10:16.029Z,100732.03
2022-09-01T15:12:55.197Z,100718.47
2022-09-01T15:15:23.715Z,100721.72
2022-09-01T15:17:51.572Z,100724.03
2022-09-01T15:20:36.788Z,100718.47
2022-09-01T15:23:05.438Z,100716.47
2022-09-01T15:25:33.292Z,100718.34
2022-09-01T15:28:02.802Z,100720.59
2022-09-01T15:30:31.133Z,100716.97
2022-09-01T15:32:58.980Z,100709.31
2022-09-01T15:35:30.982Z,100713.03
2022-09-01T15:37:59.365Z,100708.88
2022-09-01T15:40:28.256Z,100714.50
2022-09-01T15:42:57.583Z,100711.13
2022-09-01T15:45:28.793Z,100715.94
2022-09-01T15:47:56.912Z,100709.41
2022-09-01T15:50:27.903Z,100711.00
2022-09-01T15:52:58.626Z,100714.53
2022-09-01T15:55:29.109Z,100711.63
2022-09-01T15:57:56.965Z,100706.69
2022-09-01T16:00:27.709Z,100706.38
2022-09-01T16:02:56.593Z,100704.59
2022-09-01T16:05:25.090Z,100707.59
2022-09-01T16:07:53.633Z,100704.69
2022-09-01T16:10:21.784Z,100698.06
2022-09-01T16:12:51.801Z,100696.03
2022-09-01T16:15:22.206Z,100691.41
2022-09-01T16:18:13.530Z,100693.00
2022-09-01T16:20:55.509Z,100693.88
2022-09-01T16:23:25.611Z,100688.81
2022-09-01T16:25:54.764Z,100686.13
2022-09-01T16:28:27.731Z,100686.53
2022-09-01T16:31:02.280Z,100679.19
2022-09-01T16:33:33.938Z,100685.41
2022-09-01T16:36:17.173Z,100674.53
2022-09-01T16:38:50.393Z,100682.69
2022-09-01T16:41:29.796Z,100672.16
2022-09-01T16:44:07.513Z,100677.09
2022-09-01T16:46:45.594Z,100675.19
2022-09-01T16:49:21.684Z,100666.22
2022-09-01T16:51:58.503Z,100671.16
2022-09-01T16:54:37.034Z,100664.44
2022-09-01T16:57:12.089Z,100666.97
2022-09-01T16:59:53.280Z,100662.97
2022-09-01T17:02:41.988Z,100664.38
2022-09-01T17:05:22.067Z,100656.56
2022-09-01T17:07:53.627Z,100654.13
2022-09-01T17:10:32.829Z,100662.28
2022-09-01T17:13:16.574Z,100657.97
2022-09-01T17:15:48.302Z,100654.78
2022-09-01T17:18:21.952Z,100656.94
2022-09-01T17:20:57.984Z,100656.94
2022-09-01T17:23:29.227Z,100661.91
2022-09-01T17:26:01.808Z,100659.50
2022-09-01T17:28:35.670Z,100659.78
2022-09-01T17:31:14.449Z,100659.63
2022-09-01T17:33:56.330Z,100652.88
2022-09-01T17:36:36.047Z,100656.25
2022-09-01T17:39:14.164Z,100646.31
2022-09-01T17:41:48.696Z,100659.69
2022-09-01T17:44:24.264Z,100648.47
2022-09-01T17:47:00.640Z,100648.59
2022-09-01T17:49:37.555Z,100647.09
2022-09-01T17:52:15.134Z,100661.56
2022-09-01T17:54:52.316Z,100658.19
2022-09-01T17:57:27.248Z,100656.69
2022-09-01T18:00:02.927Z,100665.72
2022-09-01T18:03:07.355Z,100660.19
2022-09-01T18:05:41.282Z,100657.59
2022-09-01T18:08:28.018Z,100659.63
2022-09-01T18:10:59.943Z,100662.28
2022-09-01T18:13:51.907Z,100663.47
2022-09-01T18:16:21.622Z,100664.69
2022-09-01T18:18:51.278Z,100672.94
2022-09-01T18:21:21.294Z,100668.72
2022-09-01T18:23:55.626Z,100674.25
2022-09-01T18:26:29.697Z,100667.28
2022-09-01T18:28:58.042Z,100671.50
2022-09-01T18:31:56.871Z,100676.22
2022-09-01T18:34:37.258Z,100668.19
2022-09-01T18:37:16.347Z,100676.72
2022-09-01T18:39:58.310Z,100674.09
2022-09-01T18:42:32.925Z,100670.69
2022-09-01T18:45:06.592Z,100683.78
2022-09-01T18:47:36.910Z,100682.06
2022-09-01T18:50:15.281Z,100679.44
2022-09-01T18:52:58.514Z,100680.34
2022-09-01T18:55:37.298Z,100678.78
2022-09-01T18:58:09.923Z,100678.38
2022-09-01T19:00:45.280Z,100675.75
2022-09-01T19:03:23.993Z,100682.31
2022-09-01T19:06:09.626Z,100675.38
2022-09-01T19:08:47.718Z,100677.28
2022-09-01T19:11:26.505Z,100677.06
2022-09-01T19:14:05.717Z,100673.94
2022-09-01T19:16:46.847Z,100686.22
2022-09-01T19:19:28.955Z,100680.88
2022-09-01T19:21:57.260Z,100680.75
2022-09-01T19:24:30.348Z,100672.47
2022-09-01T19:27:04.466Z,100678.97
2022-09-01T19:29:37.289Z,100683.34
2022-09-01T19:32:08.735Z,100681.81
2022-09-01T19:34:40.577Z,100684.28
2022-09-01T19:37:08.847Z,100681.16
2022-09-01T19:39:39.923Z,100682.53
2022-09-01T19:42:14.820Z,100682.59
2022-09-01T19:44:55.028Z,100681.28
2022-09-01T19:47:30.046Z,100683.75
2022-09-01T19:50:05.391Z,100683.50
2022-09-01T19:52:39.541Z,100679.78
2022-09-01T19:55:13.712Z,100677.94
2022-09-01T19:57:50.669Z,100677.72
2022-09-01T20:00:25.418Z,100677.78
2022-09-01T20:03:01.072Z,100686.47
2022-09-01T20:05:32.769Z,100688.13
2022-09-01T20:08:04.182Z,100681.63
2022-09-01T20:10:56.591Z,100676.28
2022-09-01T20:14:03.036Z,100679.88
2022-09-01T20:16:35.322Z,100680.44
2022-09-01T20:19:09.031Z,100678.59
2022-09-01T20:21:40.199Z,100681.34
2022-09-01T20:24:15.297Z,100680.03
2022-09-01T20:26:50.066Z,100677.09
2022-09-01T20:29:26.049Z,100670.66
2022-09-01T20:31:58.233Z,100671.78
2022-09-01T20:34:32.873Z,100669.16
2022-09-01T20:37:05.492Z,100664.59
2022-09-01T20:39:58.199Z,100665.44
2022-09-01T20:42:37.167Z,100665.50
2022-09-01T20:45:13.509Z,100664.44
2022-09-01T20:47:42.973Z,100663.69
2022-09-01T20:50:13.278Z,100661.78
2022-09-01T20:52:51.497Z,100648.84
2022-09-01T20:55:26.358Z,100649.44
2022-09-01T20:58:01.883Z,100642.22
2022-09-01T21:00:34.397Z,100651.63
2022-09-01T21:03:15.445Z,100649.53
2022-09-01T21:05:50.998Z,100658.16
2022-09-01T21:08:34.637Z,100658.75
2022-09-01T21:11:25.883Z,100654.69
2022-09-01T21:14:06.806Z,100663.34
2022-09-01T21:16:45.966Z,100659.34
2022-09-01T21:19:23.066Z,100651.28
2022-09-01T21:22:00.992Z,100658.03
2022-09-01T21:24:28.783Z,100657.78
2022-09-01T21:26:57.555Z,100654.03
2022-09-01T21:29:34.052Z,100652.44
2022-09-01T21:32:03.848Z,100645.97
2022-09-01T21:34:31.794Z,100641.13
2022-09-01T21:37:01.004Z,100636.31
2022-09-01T21:39:28.882Z,100636.06
2022-09-01T21:41:57.777Z,100637.41
2022-09-01T21:44:26.284Z,100638.00
2022-09-01T21:46:54.225Z,100640.13
2022-09-01T21:49:24.112Z,100637.19
2022-09-01T21:51:52.019Z,100639.34
2022-09-01T21:54:20.035Z,100633.97
2022-09-01T21:56:48.709Z,100628.91
2022-09-01T21:59:17.150Z,100632.94
2022-09-01T22:01:45.167Z,100634.28
2022-09-01T22:04:13.695Z,100624.06
2022-09-01T22:06:42.862Z,100623.81
2022-09-01T22:09:20.827Z,100622.75
2022-09-01T22:11:51.109Z,100624.09
2022-09-01T22:14:19.880Z,100626.81
2022-09-01T22:16:48.274Z,100619.56
2022-09-01T22:19:17.139Z,100615.28
2022-09-01T22:21:46.771Z,100621.47
2022-09-01T22:24:14.612Z,100623.38
2022-09-01T22:26:48.281Z,100615.63
2022-09-01T22:29:17.425Z,100616.69
2022-09-01T22:31:45.875Z,100615.06
2022-09-01T22:34:14.106Z,100617.00
2022-09-01T22:36:47.549Z,100619.44
2022-09-01T22:39:16.806Z,100612.97
2022-09-01T22:41:44.618Z,100618.06
2022-09-01T22:44:12.919Z,100618.09
2022-09-01T22:46:41.909Z,100612.72
2022-09-01T22:49:10.324Z,100613.00
2022-09-01T22:51:39.716Z,100608.44
2022-09-01T22:54:09.988Z,100607.88
2022-09-01T22:56:40.120Z,100603.06
2022-09-01T22:59:11.038Z,100607.63
2022-09-01T23:01:43.060Z,100598.75
2022-09-01T23:04:13.004Z,100596.31
2022-09-01T23:06:43.749Z,100602.78
2022-09-01T23:09:14.021Z,100600.38
2022-09-01T23:11:42.499Z,100593.63
2022-09-01T23:14:10.542Z,100598.50
2022-09-01T23:16:38.715Z,100599.56
2022-09-01T23:19:07.519Z,100589.06
2022-09-01T23:21:37.773Z,100588.53
2022-09-01T23:24:06.587Z,100591.50
2022-09-01T23:26:36.193Z,100582.88
2022-09-01T23:29:05.220Z,100583.44
2022-09-01T23:31:35.889Z,100585.59
2022-09-01T23:34:04.820Z,100579.69
2022-09-01T23:36:33.118Z,100571.88
2022-09-01T23:39:01.425Z,100571.91
2022-09-01T23:41:32.151Z,100570.53
2022-09-01T23:44:03.384Z,100571.34
2022-09-01T23:46:34.588Z,100565.69
2022-09-01T23:49:03.150Z,100558.97
2022-09-01T23:51:31.246Z,100550.38
2022-09-01T23:53:59.889Z,100556.81
2022-09-01T23:56:29.660Z,100558.19
2022-09-01T23:58:58.348Z,100558.72
